Time;durP1;ratioP1;P1;durP2;ratioP2;P2;SDS_P1;SDS_P2;PMS_P1;PMS_P2;Temp;Humidity;BMP_temperature;BMP_pressure;BME280_temperature;BME280_humidity;BME280_pressure;Samples;Min_cycle;Max_cycle;Signal;HPM_P1;HPM_P2
2022/11/08 00:01:32;;;;;;;0.20;0.20;;;11.40;99.90;;;;;;4945107;28;20528;-88
2022/11/08 00:04:03;;;;;;;0.20;0.20;;;11.40;99.90;;;;;;4949016;29;20448;-85
2022/11/08 00:14:41;;;;;;;0.20;0.20;;;11.50;99.90;;;;;;4947922;28;20909;-88
2022/11/08 00:17:07;;;;;;;0.20;0.20;;;11.50;99.90;;;;;;4946990;28;20494;-85
2022/11/08 00:19:33;;;;;;;0.20;0.20;;;11.50;99.90;;;;;;4950823;28;20206;-85
2022/11/08 00:21:58;;;;;;;0.20;0.20;;;11.50;99.90;;;;;;4950969;28;20295;-86
2022/11/08 00:24:24;;;;;;;0.20;0.20;;;11.50;99.90;;;;;;4946331;28;20578;-86
2022/11/08 00:26:49;;;;;;;0.20;0.20;;;11.50;99.90;;;;;;4947146;28;20194;-86
2022/11/08 00:29:15;;;;;;;0.20;0.20;;;11.50;99.90;;;;;;4942263;28;20676;-84
2022/11/08 00:31:42;;;;;;;0.20;0.20;;;11.50;99.90;;;;;;4945864;28;20202;-88
2022/11/08 00:34:08;;;;;;;0.20;0.20;;;11.50;99.90;;;;;;4950546;28;20673;-86
2022/11/08 00:36:33;;;;;;;0.20;0.20;;;11.60;99.90;;;;;;4949993;28;20422;-85
2022/11/08 00:38:59;;;;;;;0.20;0.20;;;11.60;99.90;;;;;;4953611;28;20318;-86
2022/11/08 00:41:24;;;;;;;0.20;0.20;;;11.60;99.90;;;;;;4951452;28;20297;-86
2022/11/08 00:43:50;;;;;;;0.20;0.20;;;11.60;99.90;;;;;;4948293;28;20194;-88
2022/11/08 00:46:15;;;;;;;0.20;0.20;;;11.50;99.90;;;;;;4947563;28;20634;-85
2022/11/08 00:48:41;;;;;;;0.20;0.20;;;11.50;99.90;;;;;;4953539;28;20195;-85
2022/11/08 00:51:08;;;;;;;0.20;0.20;;;11.50;99.90;;;;;;4946288;28;20187;-87
2022/11/08 00:53:37;;;;;;;0.20;0.20;;;11.60;99.90;;;;;;4949669;28;20380;-89
2022/11/08 00:56:09;;;;;;;0.10;0.10;;;11.50;99.90;;;;;;4947999;28;20524;-89
2022/11/08 00:58:34;;;;;;;0.10;0.10;;;11.50;99.90;;;;;;4950549;28;20486;-88
2022/11/08 01:01:00;;;;;;;0.10;0.10;;;11.60;99.90;;;;;;4957131;28;20826;-88
2022/11/08 01:03:26;;;;;;;0.10;0.10;;;11.50;99.90;;;;;;4948463;28;20199;-89
2022/11/08 01:05:53;;;;;;;0.10;0.10;;;11.50;99.90;;;;;;4949505;28;20187;-86
2022/11/08 01:08:20;;;;;;;0.10;0.10;;;11.50;99.90;;;;;;4948006;28;20195;-87
2022/11/08 01:10:49;;;;;;;0.10;0.10;;;11.50;99.90;;;;;;4948119;28;20961;-88
2022/11/08 01:13:15;;;;;;;0.10;0.10;;;11.50;99.90;;;;;;4952669;28;20450;-89
2022/11/08 01:15:42;;;;;;;0.10;0.10;;;11.50;99.90;;;;;;4949108;28;20473;-88
2022/11/08 01:18:10;;;;;;;0.10;0.10;;;11.50;99.90;;;;;;4948633;28;20493;-88
2022/11/08 01:20:43;;;;;;;0.10;0.10;;;11.50;99.90;;;;;;4952994;28;20845;-89
2022/11/08 01:23:09;;;;;;;0.10;0.10;;;11.50;99.90;;;;;;4944880;28;20462;-86
2022/11/08 01:25:37;;;;;;;0.10;0.10;;;11.50;99.90;;;;;;4943837;28;20454;-86
2022/11/08 01:28:02;;;;;;;0.10;0.10;;;11.50;99.90;;;;;;4951776;28;20454;-86
2022/11/08 01:30:28;;;;;;;0.10;0.10;;;11.50;99.90;;;;;;4943632;28;20451;-86
2022/11/08 01:32:53;;;;;;;0.10;0.10;;;11.50;99.90;;;;;;4947464;28;20203;-86
2022/11/08 01:35:19;;;;;;;0.20;0.20;;;11.50;99.90;;;;;;4949296;28;20590;-87
2022/11/08 01:37:44;;;;;;;0.17;0.17;;;11.50;99.90;;;;;;4944878;28;20230;-87
2022/11/08 01:40:10;;;;;;;0.10;0.10;;;11.50;99.90;;;;;;4948290;28;20651;-86
2022/11/08 01:42:35;;;;;;;0.20;0.20;;;11.50;99.90;;;;;;4956164;28;20191;-88
2022/11/08 01:45:07;;;;;;;0.20;0.20;;;11.50;99.90;;;;;;4944655;28;20650;-86
2022/11/08 01:47:32;;;;;;;0.20;0.20;;;11.50;99.90;;;;;;4941644;28;20199;-87
2022/11/08 01:50:10;;;;;;;0.20;0.20;;;11.50;99.90;;;;;;4948876;29;20448;-86
2022/11/08 01:52:49;;;;;;;0.20;0.20;;;11.50;99.90;;;;;;4951627;28;20998;-86
2022/11/08 01:55:26;;;;;;;0.20;0.20;;;11.50;99.90;;;;;;4935055;28;20461;-86
2022/11/08 01:58:00;;;;;;;0.20;0.20;;;11.50;99.90;;;;;;4942247;28;20482;-86
2022/11/08 02:00:25;;;;;;;0.20;0.20;;;11.50;99.90;;;;;;4945257;28;20454;-87
2022/11/08 02:02:58;;;;;;;0.20;0.20;;;11.50;99.90;;;;;;4944013;28;20993;-86
2022/11/08 02:05:25;;;;;;;0.17;0.17;;;11.50;99.90;;;;;;4941215;28;20195;-88
2022/11/08 02:07:57;;;;;;;0.20;0.20;;;11.50;99.90;;;;;;4947785;29;20451;-87
2022/11/08 02:10:28;;;;;;;0.20;0.20;;;11.50;99.90;;;;;;4929369;28;20475;-87
2022/11/08 02:12:54;;;;;;;0.20;0.20;;;11.50;99.90;;;;;;4951662;28;20446;-87
2022/11/08 02:15:23;;;;;;;0.20;0.20;;;11.50;99.90;;;;;;4949676;28;20446;-88
2022/11/08 02:17:49;;;;;;;0.20;0.20;;;11.50;99.90;;;;;;4955583;28;20501;-85
2022/11/08 02:20:15;;;;;;;0.20;0.20;;;11.50;99.90;;;;;;4948138;28;20516;-88
2022/11/08 02:22:55;;;;;;;0.20;0.20;;;11.50;99.90;;;;;;4945376;28;20202;-88
2022/11/08 02:25:20;;;;;;;0.20;0.20;;;11.50;99.90;;;;;;4948371;28;21928;-87
2022/11/08 02:27:46;;;;;;;0.20;0.20;;;11.50;99.90;;;;;;4947752;28;20459;-87
2022/11/08 02:30:12;;;;;;;0.20;0.20;;;11.50;99.90;;;;;;4941606;28;20199;-87
2022/11/08 02:32:38;;;;;;;0.20;0.20;;;11.50;99.90;;;;;;4938720;28;20232;-84
2022/11/08 02:35:09;;;;;;;0.20;0.20;;;11.50;99.90;;;;;;4948176;28;20203;-87
2022/11/08 02:37:34;;;;;;;0.20;0.20;;;11.50;99.90;;;;;;4949899;28;20494;-87
2022/11/08 02:40:00;;;;;;;0.20;0.20;;;11.50;99.90;;;;;;4952854;29;20907;-88
2022/11/08 02:42:25;;;;;;;0.20;0.20;;;11.50;99.90;;;;;;4950523;28;20233;-87
2022/11/08 02:44:51;;;;;;;0.10;0.10;;;11.50;99.90;;;;;;4953176;28;20191;-88
2022/11/08 02:47:16;;;;;;;0.20;0.20;;;11.50;99.90;;;;;;4953256;28;20182;-87
2022/11/08 02:49:42;;;;;;;0.20;0.20;;;11.50;99.90;;;;;;4951900;28;20213;-88
2022/11/08 02:52:08;;;;;;;0.20;0.20;;;11.40;99.90;;;;;;4950839;28;20198;-87
2022/11/08 02:54:33;;;;;;;0.20;0.20;;;11.40;99.90;;;;;;4939532;28;21009;-88
2022/11/08 02:56:59;;;;;;;0.20;0.20;;;11.40;99.90;;;;;;4949811;29;20241;-87
2022/11/08 02:59:24;;;;;;;0.20;0.20;;;11.40;99.90;;;;;;4950336;28;20227;-88
2022/11/08 03:01:50;;;;;;;0.20;0.20;;;11.40;99.90;;;;;;4946244;28;20198;-89
2022/11/08 03:04:15;;;;;;;0.20;0.20;;;11.30;99.90;;;;;;4940851;28;20668;-88
2022/11/08 03:06:40;;;;;;;0.20;0.20;;;11.30;99.90;;;;;;4950061;28;20187;-88
2022/11/08 03:09:06;;;;;;;0.20;0.20;;;11.30;99.90;;;;;;4950794;28;20555;-87
2022/11/08 03:11:32;;;;;;;0.10;0.10;;;11.30;99.90;;;;;;4949326;28;20195;-87
2022/11/08 03:13:57;;;;;;;0.20;0.20;;;11.30;99.90;;;;;;4955145;28;20187;-88
2022/11/08 03:16:23;;;;;;;0.20;0.20;;;11.30;99.90;;;;;;4957754;28;20194;-88
2022/11/08 03:18:48;;;;;;;0.20;0.20;;;11.30;99.90;;;;;;4968922;28;20614;-87
2022/11/08 03:21:14;;;;;;;0.20;0.20;;;11.30;99.90;;;;;;4950141;28;20207;-88
2022/11/08 03:23:39;;;;;;;0.20;0.20;;;11.30;99.90;;;;;;4935460;28;20617;-87
2022/11/08 03:26:05;;;;;;;0.10;0.10;;;11.30;99.90;;;;;;4947607;28;20195;-88
2022/11/08 03:28:31;;;;;;;0.20;0.20;;;11.30;99.90;;;;;;4950118;28;20206;-88
2022/11/08 03:30:56;;;;;;;0.20;0.20;;;11.30;99.90;;;;;;4949905;28;20193;-87
2022/11/08 03:33:22;;;;;;;0.10;0.10;;;11.30;99.90;;;;;;4950676;28;20195;-87
2022/11/08 03:35:48;;;;;;;0.20;0.20;;;11.30;99.90;;;;;;4951123;29;20183;-88
2022/11/08 03:38:14;;;;;;;0.20;0.20;;;11.30;99.90;;;;;;4945714;28;20242;-87
2022/11/08 03:40:40;;;;;;;0.20;0.20;;;11.30;99.90;;;;;;4948229;28;22145;-89
2022/11/08 03:43:05;;;;;;;0.20;0.20;;;11.30;99.90;;;;;;4947650;28;20218;-87
2022/11/08 03:45:31;;;;;;;0.20;0.20;;;11.30;99.90;;;;;;4951176;28;20607;-87
2022/11/08 03:47:56;;;;;;;0.20;0.20;;;11.30;99.90;;;;;;4951010;28;20262;-88
2022/11/08 03:50:22;;;;;;;0.10;0.10;;;11.30;99.90;;;;;;4948718;28;20720;-87
2022/11/08 03:52:50;;;;;;;0.20;0.20;;;11.30;99.90;;;;;;4949103;28;20190;-89
2022/11/08 03:55:17;;;;;;;0.20;0.20;;;11.30;99.90;;;;;;4950718;29;20183;-88
2022/11/08 03:57:45;;;;;;;0.20;0.20;;;11.30;99.90;;;;;;4948928;28;21047;-87
2022/11/08 04:00:12;;;;;;;0.20;0.20;;;11.30;99.90;;;;;;4941609;28;20442;-88
2022/11/08 04:02:38;;;;;;;0.20;0.20;;;11.30;99.90;;;;;;4950704;28;20516;-87
2022/11/08 04:05:05;;;;;;;0.20;0.20;;;11.30;99.90;;;;;;4948240;29;20885;-86
2022/11/08 04:07:30;;;;;;;0.10;0.10;;;11.30;99.90;;;;;;4956420;28;20457;-88
2022/11/08 04:09:56;;;;;;;0.20;0.20;;;11.30;99.90;;;;;;4961274;28;20447;-90
2022/11/08 04:15:16;;;;;;;0.20;0.20;;;11.30;99.90;;;;;;4949481;28;20200;-88
2022/11/08 04:23:12;;;;;;;0.20;0.20;;;11.30;99.90;;;;;;4937130;29;20438;-88
2022/11/08 04:25:38;;;;;;;0.20;0.20;;;11.30;99.90;;;;;;4945241;28;20451;-92
2022/11/08 04:28:04;;;;;;;0.20;0.20;;;11.30;99.90;;;;;;4949975;28;20251;-88
2022/11/08 04:30:30;;;;;;;0.20;0.20;;;11.30;99.90;;;;;;4954452;28;20186;-87
2022/11/08 04:32:55;;;;;;;0.20;0.20;;;11.30;99.90;;;;;;4952647;28;20276;-88
2022/11/08 04:35:21;;;;;;;0.20;0.20;;;11.30;99.90;;;;;;4948456;28;20508;-88
2022/11/08 04:37:46;;;;;;;0.20;0.20;;;11.30;99.90;;;;;;4949233;28;20313;-90
2022/11/08 04:40:12;;;;;;;0.20;0.20;;;11.30;99.90;;;;;;4942816;28;20655;-88
2022/11/08 04:42:42;;;;;;;0.20;0.20;;;11.30;99.90;;;;;;4949644;28;20202;-88
2022/11/08 04:45:08;;;;;;;0.20;0.20;;;11.30;99.90;;;;;;4937444;29;20200;-87
2022/11/08 04:47:33;;;;;;;0.20;0.20;;;11.30;99.90;;;;;;4950194;28;20461;-88
2022/11/08 04:49:58;;;;;;;0.20;0.20;;;11.20;99.90;;;;;;4949837;29;20270;-87
2022/11/08 04:52:24;;;;;;;0.20;0.20;;;11.20;99.90;;;;;;4949766;29;20689;-87
2022/11/08 04:54:49;;;;;;;0.20;0.20;;;11.20;99.90;;;;;;4950224;29;20219;-89
2022/11/08 04:57:15;;;;;;;0.10;0.10;;;11.20;99.90;;;;;;4946940;28;20267;-87
2022/11/08 04:59:40;;;;;;;0.10;0.10;;;11.10;99.90;;;;;;4948949;28;20534;-86
2022/11/08 05:02:07;;;;;;;0.20;0.20;;;11.10;99.90;;;;;;4948220;28;20187;-90
2022/11/08 05:04:32;;;;;;;0.20;0.20;;;11.10;99.90;;;;;;4948586;29;20195;-86
2022/11/08 05:06:58;;;;;;;0.20;0.20;;;11.10;99.90;;;;;;4951485;29;20964;-88
2022/11/08 05:09:23;;;;;;;0.20;0.20;;;11.10;99.90;;;;;;4948982;28;20269;-88
2022/11/08 05:11:48;;;;;;;0.20;0.20;;;11.10;99.90;;;;;;4951234;28;20203;-86
2022/11/08 05:14:14;;;;;;;0.20;0.20;;;11.10;99.90;;;;;;4950815;29;20297;-87
2022/11/08 05:16:39;;;;;;;0.20;0.20;;;11.00;99.90;;;;;;4948763;28;20233;-86
2022/11/08 05:19:05;;;;;;;0.20;0.20;;;11.00;99.90;;;;;;4948871;28;20218;-88
2022/11/08 05:24:16;;;;;;;0.17;0.17;;;11.00;99.90;;;;;;4950234;29;20205;-87
2022/11/08 05:26:43;;;;;;;0.20;0.20;;;11.00;99.90;;;;;;4945775;29;20450;-86
2022/11/08 05:29:11;;;;;;;0.20;0.20;;;11.00;99.90;;;;;;4944022;29;20452;-86
2022/11/08 05:31:37;;;;;;;0.20;0.20;;;11.00;99.90;;;;;;4940776;28;20449;-88
2022/11/08 05:34:02;;;;;;;0.20;0.20;;;10.90;99.90;;;;;;4942980;28;20462;-88
2022/11/08 05:36:28;;;;;;;0.20;0.20;;;10.90;99.90;;;;;;4942437;29;20473;-89
2022/11/08 05:38:54;;;;;;;0.20;0.20;;;10.80;99.90;;;;;;4949012;28;20245;-88
2022/11/08 05:41:21;;;;;;;0.20;0.20;;;10.80;99.90;;;;;;4945087;29;20214;-88
2022/11/08 05:43:49;;;;;;;0.20;0.20;;;10.90;99.90;;;;;;4949739;29;20182;-89
2022/11/08 05:46:15;;;;;;;0.17;0.17;;;10.80;99.90;;;;;;4948744;28;20457;-87
2022/11/08 05:48:42;;;;;;;0.20;0.20;;;10.80;99.90;;;;;;4945322;28;20798;-89
2022/11/08 05:51:08;;;;;;;0.20;0.20;;;10.80;99.90;;;;;;4948855;29;20862;-91
2022/11/08 05:53:34;;;;;;;0.10;0.10;;;10.80;99.90;;;;;;4944184;29;20861;-89
2022/11/08 05:56:01;;;;;;;0.20;0.20;;;10.80;99.90;;;;;;4949302;29;20453;-89
2022/11/08 05:58:27;;;;;;;0.20;0.20;;;10.80;99.90;;;;;;4942843;28;20214;-89
2022/11/08 06:01:09;;;;;;;0.20;0.20;;;10.80;99.90;;;;;;4946655;28;20446;-90
2022/11/08 06:03:34;;;;;;;0.20;0.20;;;10.80;99.90;;;;;;4946634;29;20626;-88
2022/11/08 06:06:06;;;;;;;0.20;0.20;;;10.80;99.90;;;;;;4945095;28;20855;-89
2022/11/08 06:08:33;;;;;;;0.20;0.20;;;10.80;99.90;;;;;;4948112;28;20799;-90
2022/11/08 06:11:03;;;;;;;0.20;0.20;;;10.80;99.90;;;;;;4946554;29;20445;-90
2022/11/08 06:13:28;;;;;;;0.20;0.20;;;10.80;99.90;;;;;;4947099;28;20466;-90
2022/11/08 06:15:54;;;;;;;0.20;0.20;;;10.80;99.90;;;;;;4944164;29;20487;-87
2022/11/08 06:18:19;;;;;;;0.20;0.20;;;10.80;99.90;;;;;;4947975;29;20214;-88
2022/11/08 06:20:45;;;;;;;0.20;0.20;;;10.80;99.90;;;;;;4950747;28;20950;-91
2022/11/08 06:23:10;;;;;;;0.20;0.20;;;10.70;99.90;;;;;;4947684;28;20320;-87
2022/11/08 06:25:36;;;;;;;0.20;0.20;;;10.70;99.90;;;;;;4949213;28;20546;-89
2022/11/08 06:28:01;;;;;;;0.20;0.20;;;10.70;99.90;;;;;;4947062;28;20183;-89
2022/11/08 06:30:28;;;;;;;0.20;0.20;;;10.70;99.90;;;;;;4936709;28;20609;-87
2022/11/08 06:32:53;;;;;;;0.20;0.20;;;10.80;99.90;;;;;;4945581;28;20182;-87
2022/11/08 06:35:19;;;;;;;0.20;0.20;;;10.70;99.90;;;;;;4947891;29;20461;-89
2022/11/08 06:37:44;;;;;;;0.10;0.10;;;10.80;99.90;;;;;;4942765;28;20603;-90
2022/11/08 06:40:10;;;;;;;0.20;0.20;;;10.70;99.90;;;;;;4941000;28;20193;-90
2022/11/08 06:42:36;;;;;;;0.20;0.20;;;10.70;99.90;;;;;;4941626;29;20666;-87
2022/11/08 06:45:01;;;;;;;0.20;0.20;;;10.70;99.90;;;;;;4946884;28;20194;-90
2022/11/08 06:47:26;;;;;;;0.20;0.20;;;10.70;99.90;;;;;;4946902;28;20657;-86
2022/11/08 06:49:52;;;;;;;0.10;0.10;;;10.70;99.90;;;;;;4944110;28;20262;-90
2022/11/08 06:52:17;;;;;;;0.20;0.20;;;10.70;99.90;;;;;;4946224;28;20718;-88
2022/11/08 06:54:43;;;;;;;0.20;0.20;;;10.70;99.90;;;;;;4947305;28;20209;-86
2022/11/08 06:57:08;;;;;;;0.20;0.20;;;10.70;99.90;;;;;;4944980;28;20194;-86
2022/11/08 06:59:34;;;;;;;0.20;0.20;;;10.70;99.90;;;;;;4942953;28;20230;-86
2022/11/08 07:02:00;;;;;;;0.20;0.20;;;10.70;99.90;;;;;;4945963;29;20644;-86
2022/11/08 07:04:26;;;;;;;0.20;0.20;;;10.70;99.90;;;;;;4940625;29;20849;-87
2022/11/08 07:06:51;;;;;;;0.20;0.20;;;10.80;99.90;;;;;;4942785;29;20481;-86
2022/11/08 07:09:17;;;;;;;0.20;0.20;;;10.80;99.90;;;;;;4945327;28;20195;-86
2022/11/08 07:11:42;;;;;;;0.20;0.20;;;10.80;99.90;;;;;;4947377;28;20222;-85
2022/11/08 07:14:08;;;;;;;0.20;0.20;;;10.80;99.90;;;;;;4938233;28;20655;-87
2022/11/08 07:16:33;;;;;;;0.20;0.20;;;10.80;99.90;;;;;;4941887;28;20195;-86
2022/11/08 07:18:59;;;;;;;0.20;0.20;;;10.80;99.90;;;;;;4946863;29;20234;-87
2022/11/08 07:21:24;;;;;;;0.20;0.20;;;10.80;99.90;;;;;;4948581;29;20191;-86
2022/11/08 07:23:50;;;;;;;0.20;0.20;;;10.80;99.90;;;;;;4949292;28;20232;-88
2022/11/08 07:26:15;;;;;;;0.20;0.20;;;10.70;99.90;;;;;;4949841;28;20276;-87
2022/11/08 07:28:41;;;;;;;0.20;0.20;;;10.70;99.90;;;;;;4948587;28;20197;-88
2022/11/08 07:31:07;;;;;;;0.20;0.20;;;10.80;99.90;;;;;;4950595;29;20199;-85
2022/11/08 07:33:33;;;;;;;0.20;0.20;;;10.80;99.90;;;;;;4949008;28;20187;-87
2022/11/08 07:35:59;;;;;;;0.20;0.20;;;10.80;99.90;;;;;;4949682;28;20488;-85
2022/11/08 07:38:25;;;;;;;0.10;0.10;;;10.80;99.90;;;;;;4947942;28;20249;-89
2022/11/08 07:40:54;;;;;;;0.20;0.20;;;10.90;99.90;;;;;;4945852;28;20442;-88
2022/11/08 07:43:19;;;;;;;0.20;0.20;;;10.90;99.90;;;;;;4948717;29;20969;-87
2022/11/08 07:45:45;;;;;;;0.20;0.20;;;10.90;99.90;;;;;;4948408;28;20478;-87
2022/11/08 07:48:12;;;;;;;0.20;0.20;;;11.00;99.90;;;;;;4951994;28;20191;-86
2022/11/08 07:50:39;;;;;;;0.20;0.20;;;10.90;99.90;;;;;;4947194;28;20233;-88
2022/11/08 07:53:04;;;;;;;0.20;0.20;;;11.00;99.90;;;;;;4948043;29;20481;-89
2022/11/08 07:55:30;;;;;;;0.20;0.20;;;11.00;99.90;;;;;;4950210;28;20942;-93
2022/11/08 07:58:00;;;;;;;0.20;0.20;;;11.00;99.90;;;;;;4947965;28;20222;-87
2022/11/08 08:00:27;;;;;;;0.20;0.20;;;11.00;99.90;;;;;;4949213;28;20197;-89
2022/11/08 08:02:57;;;;;;;0.20;0.20;;;11.00;99.90;;;;;;4949613;28;20439;-86
2022/11/08 08:05:23;;;;;;;0.20;0.20;;;11.10;99.90;;;;;;4946738;28;20504;-88
2022/11/08 08:07:48;;;;;;;0.20;0.20;;;11.10;99.90;;;;;;4947611;28;21203;-88
2022/11/08 08:10:14;;;;;;;0.20;0.20;;;11.10;99.90;;;;;;4950918;28;20582;-86
2022/11/08 08:12:39;;;;;;;0.20;0.20;;;11.10;99.90;;;;;;4948133;28;20214;-86
2022/11/08 08:15:05;;;;;;;0.20;0.20;;;11.10;99.90;;;;;;4949552;28;20870;-88
2022/11/08 08:17:31;;;;;;;0.20;0.20;;;11.10;99.90;;;;;;4933310;28;20198;-87
2022/11/08 08:19:56;;;;;;;0.20;0.20;;;11.10;99.90;;;;;;4949451;28;20452;-88
2022/11/08 08:22:22;;;;;;;0.20;0.20;;;11.20;99.90;;;;;;4948240;28;20183;-88
2022/11/08 08:24:47;;;;;;;0.20;0.20;;;11.20;99.90;;;;;;4963561;28;20545;-86
2022/11/08 08:27:13;;;;;;;0.20;0.20;;;11.20;99.90;;;;;;4953795;28;20193;-87
2022/11/08 08:29:38;;;;;;;0.20;0.20;;;11.20;99.90;;;;;;4947625;28;20612;-88
2022/11/08 08:32:04;;;;;;;0.20;0.20;;;11.20;99.90;;;;;;4960689;28;20186;-88
2022/11/08 08:34:30;;;;;;;0.20;0.20;;;11.20;99.90;;;;;;4949037;28;20205;-92
2022/11/08 08:36:55;;;;;;;0.20;0.20;;;11.20;99.90;;;;;;4951058;29;20545;-84
2022/11/08 08:39:21;;;;;;;0.20;0.20;;;11.30;99.90;;;;;;4947292;28;20280;-86
2022/11/08 08:41:46;;;;;;;0.20;0.20;;;11.30;99.90;;;;;;4938424;28;20298;-88
2022/11/08 08:44:12;;;;;;;0.20;0.20;;;11.30;99.90;;;;;;4944977;28;20203;-86
2022/11/08 08:46:37;;;;;;;0.13;0.13;;;11.40;99.90;;;;;;4948693;28;20195;-86
2022/11/08 08:49:04;;;;;;;0.20;0.20;;;11.40;99.90;;;;;;4947962;28;20663;-87
2022/11/08 08:51:29;;;;;;;0.20;0.20;;;11.40;99.90;;;;;;4950204;28;20191;-87
2022/11/08 08:53:55;;;;;;;0.20;0.20;;;11.50;99.90;;;;;;4965935;28;20969;-88
2022/11/08 08:56:20;;;;;;;0.20;0.20;;;11.50;99.90;;;;;;4962015;28;20223;-91
2022/11/08 08:58:46;;;;;;;0.20;0.20;;;11.60;99.90;;;;;;4943848;28;20235;-88
2022/11/08 09:01:11;;;;;;;0.20;0.20;;;11.70;99.90;;;;;;4943426;28;20236;-87
2022/11/08 09:03:37;;;;;;;0.20;0.20;;;11.70;99.90;;;;;;4948623;28;20877;-86
2022/11/08 09:06:03;;;;;;;0.10;0.10;;;11.80;99.90;;;;;;4945832;28;20182;-88
2022/11/08 09:08:29;;;;;;;0.20;0.20;;;11.90;99.90;;;;;;4943225;28;20788;-88
2022/11/08 09:10:56;;;;;;;0.20;0.20;;;11.80;99.90;;;;;;4945962;28;20209;-91
2022/11/08 09:13:22;;;;;;;0.20;0.20;;;11.80;99.90;;;;;;4951171;28;20451;-89
2022/11/08 09:15:49;;;;;;;0.20;0.20;;;11.80;99.90;;;;;;4950356;28;20442;-85
2022/11/08 09:18:15;;;;;;;0.20;0.20;;;11.90;99.90;;;;;;4950900;28;20481;-86
2022/11/08 09:20:42;;;;;;;0.13;0.13;;;12.00;99.90;;;;;;4953164;28;20464;-91
2022/11/08 09:23:09;;;;;;;0.20;0.20;;;12.20;99.90;;;;;;4945467;28;20447;-90
2022/11/08 09:25:35;;;;;;;0.10;0.10;;;12.30;99.90;;;;;;4953098;28;20516;-89
2022/11/08 09:28:00;;;;;;;0.10;0.10;;;12.50;99.90;;;;;;4953889;28;20462;-87
2022/11/08 09:30:26;;;;;;;0.20;0.20;;;12.70;99.90;;;;;;4949777;29;20194;-93
2022/11/08 09:32:52;;;;;;;0.10;0.10;;;12.90;99.90;;;;;;4968834;28;20606;-88
2022/11/08 09:35:17;;;;;;;0.10;0.10;;;13.10;99.90;;;;;;4952553;28;20265;-90
2022/11/08 09:37:43;;;;;;;0.10;0.10;;;13.20;99.90;;;;;;4951150;29;20582;-92
2022/11/08 09:40:15;;;;;;;0.10;0.10;;;13.40;99.90;;;;;;4951343;28;20281;-90
2022/11/08 09:42:51;;;;;;;0.10;0.10;;;13.50;99.90;;;;;;4951430;28;20186;-91
2022/11/08 09:45:44;;;;;;;0.10;0.10;;;13.50;99.90;;;;;;4949969;28;20454;-92
2022/11/08 09:48:22;;;;;;;0.10;0.10;;;13.60;99.90;;;;;;4971023;28;20533;-90
2022/11/08 09:50:50;;;;;;;0.10;0.10;;;13.60;99.90;;;;;;4949884;28;20465;-86
2022/11/08 09:53:21;;;;;;;0.10;0.10;;;13.50;99.90;;;;;;4948180;28;20450;-89
2022/11/08 09:55:57;;;;;;;0.10;0.10;;;13.50;99.90;;;;;;4953337;28;20451;-88
2022/11/08 09:58:34;;;;;;;0.10;0.10;;;13.50;99.90;;;;;;4951844;28;20469;-89
2022/11/08 10:01:00;;;;;;;0.10;0.10;;;13.70;99.90;;;;;;4950034;28;20449;-90
2022/11/08 10:03:27;;;;;;;0.10;0.10;;;13.70;99.90;;;;;;4949402;28;20441;-89
2022/11/08 10:06:10;;;;;;;0.10;0.10;;;13.70;99.90;;;;;;4949927;28;20953;-87
2022/11/08 10:09:08;;;;;;;0.10;0.10;;;13.70;99.90;;;;;;4940450;29;20461;-90
2022/11/08 10:12:01;;;;;;;0.10;0.10;;;13.50;99.90;;;;;;4969336;28;20454;-93
2022/11/08 10:14:41;;;;;;;0.10;0.10;;;13.70;99.90;;;;;;4940463;28;20437;-88
2022/11/08 10:17:33;;;;;;;0.10;0.10;;;13.80;99.90;;;;;;4945020;28;20446;-88
2022/11/08 10:20:16;;;;;;;0.10;0.10;;;13.70;99.90;;;;;;4947742;29;20454;-88
2022/11/08 10:22:58;;;;;;;0.10;0.10;;;13.60;99.90;;;;;;4949813;28;20470;-89
2022/11/08 10:25:41;;;;;;;0.10;0.10;;;13.60;99.90;;;;;;4948733;28;20450;-90
2022/11/08 10:28:11;;;;;;;0.10;0.10;;;13.70;99.90;;;;;;4934392;28;20450;-92
2022/11/08 10:30:41;;;;;;;0.10;0.10;;;13.70;99.90;;;;;;4942545;28;20464;-90
2022/11/08 10:33:21;;;;;;;0.10;0.10;;;13.70;99.90;;;;;;4946490;28;20474;-91
2022/11/08 10:35:54;;;;;;;0.10;0.10;;;13.60;99.90;;;;;;4945369;28;20465;-92
2022/11/08 10:38:23;;;;;;;0.10;0.10;;;13.60;99.90;;;;;;4948562;28;20848;-88
2022/11/08 10:41:00;;;;;;;0.10;0.10;;;13.80;99.90;;;;;;4936470;29;21082;-89
2022/11/08 10:43:48;;;;;;;0.10;0.10;;;14.00;99.90;;;;;;4946225;29;20808;-89
2022/11/08 10:46:40;;;;;;;0.10;0.10;;;14.40;99.90;;;;;;4945196;28;20461;-88
2022/11/08 10:49:19;;;;;;;0.10;0.10;;;15.10;99.90;;;;;;4960705;28;20820;-91
2022/11/08 10:51:47;;;;;;;0.10;0.10;;;15.70;99.90;;;;;;4949940;28;20519;-90
2022/11/08 10:54:52;;;;;;;0.10;0.10;;;15.60;99.90;;;;;;4944885;28;20450;-92
2022/11/08 10:57:42;;;;;;;0.10;0.10;;;15.60;99.90;;;;;;4914385;28;20629;-92
2022/11/08 11:00:19;;;;;;;0.10;0.10;;;15.30;99.90;;;;;;4932165;28;20462;-89
2022/11/08 11:02:53;;;;;;;0.10;0.10;;;14.70;99.90;;;;;;4945848;28;20550;-92
2022/11/08 11:05:24;;;;;;;0.10;0.10;;;14.50;99.90;;;;;;4950428;28;20445;-91
2022/11/08 11:07:58;;;;;;;0.10;0.10;;;14.60;99.90;;;;;;4938252;28;20443;-93
2022/11/08 11:10:34;;;;;;;0.10;0.10;;;14.60;99.90;;;;;;4975978;28;20452;-93
2022/11/08 11:13:02;;;;;;;0.10;0.10;;;14.70;99.90;;;;;;4956943;28;20461;-96
2022/11/08 11:15:37;;;;;;;0.10;0.10;;;14.90;99.90;;;;;;4953428;28;20685;-94
2022/11/08 11:18:36;;;;;;;0.10;0.10;;;15.10;99.90;;;;;;4950237;28;20470;-90
2022/11/08 11:21:03;;;;;;;0.10;0.10;;;15.30;99.90;;;;;;4973873;28;20450;-93
2022/11/08 11:23:43;;;;;;;0.10;0.10;;;15.70;99.90;;;;;;4954022;28;20454;-95
2022/11/08 11:26:29;;;;;;;0.10;0.10;;;15.80;99.90;;;;;;4956834;28;20442;-89
2022/11/08 11:29:00;;;;;;;0.10;0.10;;;15.90;99.90;;;;;;4950349;28;20584;-91
2022/11/08 11:31:26;;;;;;;0.10;0.10;;;15.90;99.90;;;;;;4950321;28;20442;-92
2022/11/08 11:33:51;;;;;;;0.10;0.10;;;15.90;99.90;;;;;;4950975;28;20454;-93
2022/11/08 11:36:21;;;;;;;0.10;0.10;;;16.00;99.90;;;;;;5014263;28;20197;-92
2022/11/08 11:39:12;;;;;;;0.10;0.10;;;15.50;99.90;;;;;;4947257;28;20235;-96
2022/11/08 11:41:52;;;;;;;0.10;0.10;;;15.10;99.90;;;;;;4954004;29;20473;-95
2022/11/08 11:44:20;;;;;;;0.10;0.10;;;14.90;99.90;;;;;;4952870;29;20537;-93
2022/11/08 11:46:54;;;;;;;0.10;0.10;;;14.90;99.90;;;;;;4952718;28;20427;-95
2022/11/08 11:49:20;;;;;;;0.10;0.10;;;15.20;99.90;;;;;;4959056;28;20536;-96
2022/11/08 11:51:46;;;;;;;0.10;0.10;;;15.90;99.90;;;;;;4963210;28;20442;-96
2022/11/08 11:54:15;;;;;;;0.10;0.10;;;15.60;99.90;;;;;;4951796;28;20465;-96
2022/11/08 11:57:06;;;;;;;0.10;0.10;;;15.40;99.90;;;;;;4956185;28;20454;-89
2022/11/08 11:59:47;;;;;;;0.10;0.10;;;15.50;99.90;;;;;;4944406;28;20497;-93
2022/11/08 12:02:34;;;;;;;0.10;0.10;;;15.80;99.90;;;;;;4958420;28;20470;-96
2022/11/08 12:05:27;;;;;;;0.10;0.10;;;16.30;99.90;;;;;;4955885;28;20455;-96
2022/11/08 12:08:14;;;;;;;0.10;0.10;;;16.60;99.90;;;;;;4963287;28;20465;-96
2022/11/08 12:11:05;;;;;;;0.10;0.10;;;16.90;99.90;;;;;;4952955;28;20442;-96
2022/11/08 12:13:45;;;;;;;0.10;0.10;;;16.40;99.90;;;;;;4950623;28;20462;-93
2022/11/08 12:16:20;;;;;;;0.10;0.10;;;16.00;99.90;;;;;;4951297;28;20942;-96
2022/11/08 12:19:02;;;;;;;0.10;0.10;;;16.30;99.90;;;;;;4950410;28;20543;-93
2022/11/08 12:21:39;;;;;;;0.10;0.10;;;16.50;99.90;;;;;;4948290;28;20451;-93
2022/11/08 12:24:23;;;;;;;0.10;0.10;;;17.00;99.90;;;;;;4947960;28;20479;-90
2022/11/08 12:27:08;;;;;;;0.10;0.10;;;17.40;99.90;;;;;;4951843;28;20600;-93
2022/11/08 12:30:02;;;;;;;0.10;0.10;;;17.30;99.90;;;;;;4948432;28;20442;-92
2022/11/08 12:32:39;;;;;;;0.10;0.10;;;17.00;99.90;;;;;;4949567;28;20962;-91
2022/11/08 12:35:10;;;;;;;0.10;0.10;;;16.40;99.90;;;;;;4974915;28;20452;-91
2022/11/08 12:37:41;;;;;;;0.10;0.10;;;15.90;99.90;;;;;;5053247;28;20479;-90
2022/11/08 12:40:19;;;;;;;0.10;0.10;;;15.70;99.90;;;;;;4987722;28;20449;-89
2022/11/08 12:43:21;;;;;;;0.10;0.10;;;15.60;99.90;;;;;;4951977;28;20454;-92
2022/11/08 12:46:17;;;;;;;0.10;0.10;;;15.40;99.90;;;;;;4943326;28;20462;-90
2022/11/08 12:49:23;;;;;;;0.10;0.10;;;15.50;99.90;;;;;;4939455;28;20534;-91
2022/11/08 12:52:06;;;;;;;0.10;0.10;;;15.30;99.90;;;;;;4914839;28;20488;-90
2022/11/08 12:54:39;;;;;;;0.10;0.10;;;15.10;99.90;;;;;;4945026;28;20439;-93
2022/11/08 12:57:11;;;;;;;0.10;0.10;;;15.00;99.90;;;;;;4964550;28;20450;-89
2022/11/08 12:59:43;;;;;;;0.10;0.10;;;14.70;99.90;;;;;;4945120;28;20474;-90
2022/11/08 13:02:27;;;;;;;0.10;0.10;;;14.70;99.90;;;;;;4965644;28;21070;-90
2022/11/08 13:05:07;;;;;;;0.10;0.10;;;14.70;99.90;;;;;;4950738;28;20541;-94
2022/11/08 13:07:51;;;;;;;0.10;0.10;;;14.60;99.90;;;;;;4948739;28;20997;-90
2022/11/08 13:10:46;;;;;;;0.10;0.10;;;14.50;99.90;;;;;;4944885;28;20446;-90
2022/11/08 13:13:22;;;;;;;0.10;0.10;;;14.80;99.90;;;;;;4947011;28;20533;-89
2022/11/08 13:16:22;;;;;;;0.10;0.10;;;15.00;99.90;;;;;;4946253;28;20454;-88
2022/11/08 13:19:00;;;;;;;0.10;0.10;;;15.00;99.90;;;;;;4934996;28;20493;-90
2022/11/08 13:21:37;;;;;;;0.10;0.10;;;15.00;99.90;;;;;;4941909;29;20503;-93